createdAt,value
2018-09-10T00:00:08.723Z,0.90
2018-09-10T00:02:37.778Z,0.70
2018-09-10T00:05:06.179Z,1.30
2018-09-10T00:07:34.574Z,0.83
2018-09-10T00:10:02.994Z,0.53
2018-09-10T00:12:31.374Z,1.20
2018-09-10T00:14:59.798Z,0.90
2018-09-10T00:17:28.241Z,1.27
2018-09-10T00:19:56.602Z,0.93
2018-09-10T00:22:24.906Z,1.00
2018-09-10T00:24:53.957Z,0.73
2018-09-10T00:27:22.276Z,1.10
2018-09-10T00:29:50.900Z,1.10
2018-09-10T00:32:19.272Z,0.80
2018-09-10T00:34:47.920Z,0.70
2018-09-10T00:37:16.271Z,0.80
2018-09-10T00:39:44.716Z,0.87
2018-09-10T00:42:13.167Z,0.63
2018-09-10T00:44:41.490Z,0.80
2018-09-10T00:47:09.958Z,0.70
2018-09-10T00:49:38.414Z,0.97
2018-09-10T00:52:06.728Z,0.70
2018-09-10T00:54:35.063Z,0.90
2018-09-10T00:57:03.390Z,0.93
2018-09-10T00:59:31.737Z,1.03
2018-09-10T01:02:00.075Z,1.07
2018-09-10T01:04:28.503Z,0.90
2018-09-10T01:06:56.876Z,0.80
2018-09-10T01:09:25.907Z,0.90
2018-09-10T01:11:54.359Z,1.37
2018-09-10T01:14:22.778Z,1.20
2018-09-10T01:16:51.092Z,1.50
2018-09-10T01:19:19.422Z,1.30
2018-09-10T01:21:47.762Z,0.63
2018-09-10T01:24:16.146Z,1.03
2018-09-10T01:26:44.501Z,1.13
2018-09-10T01:29:13.437Z,0.50
2018-09-10T01:31:41.819Z,0.93
2018-09-10T01:34:15.519Z,0.70
2018-09-10T01:36:50.699Z,0.80
2018-09-10T01:39:19.054Z,0.90
2018-09-10T01:41:47.491Z,0.70
2018-09-10T01:44:16.321Z,0.80
2018-09-10T01:46:44.644Z,0.60
2018-09-10T01:49:12.980Z,0.83
2018-09-10T01:51:41.317Z,0.80
2018-09-10T01:54:09.697Z,0.60
2018-09-10T01:56:38.024Z,0.80
2018-09-10T01:59:06.372Z,1.50
2018-09-10T02:01:34.717Z,0.90
2018-09-10T02:04:03.136Z,1.07
2018-09-10T02:06:31.539Z,0.87
2018-09-10T02:08:59.833Z,0.77
2018-09-10T02:11:28.184Z,1.00
2018-09-10T02:13:56.526Z,0.90
2018-09-10T02:16:24.890Z,0.83
2018-09-10T02:18:53.229Z,0.83
2018-09-10T02:21:21.602Z,1.23
2018-09-10T02:23:49.974Z,1.57
2018-09-10T02:26:18.358Z,1.27
2018-09-10T02:28:46.704Z,0.87
2018-09-10T02:31:15.052Z,0.70
2018-09-10T02:33:43.393Z,0.53
2018-09-10T02:36:12.750Z,0.90
2018-09-10T02:38:41.678Z,0.73
2018-09-10T02:41:09.951Z,1.20
2018-09-10T02:43:38.292Z,0.77
2018-09-10T02:46:07.106Z,0.80
2018-09-10T02:48:35.455Z,1.53
2018-09-10T02:51:03.847Z,0.87
2018-09-10T02:53:32.177Z,1.40
2018-09-10T02:56:00.543Z,0.60
2018-09-10T02:58:29.747Z,0.90
2018-09-10T03:00:58.071Z,0.80
2018-09-10T03:03:26.435Z,0.70
2018-09-10T03:05:54.814Z,1.10
2018-09-10T03:08:23.198Z,0.67
2018-09-10T03:10:51.597Z,0.87
2018-09-10T03:13:19.935Z,1.00
2018-09-10T03:15:48.997Z,0.90
2018-09-10T03:18:17.355Z,0.70
2018-09-10T03:20:45.823Z,1.10
2018-09-10T03:23:14.157Z,0.90
2018-09-10T03:25:42.487Z,0.77
2018-09-10T03:28:11.685Z,1.10
2018-09-10T03:30:40.045Z,0.77
2018-09-10T03:33:08.409Z,0.70
2018-09-10T03:35:36.755Z,0.90
2018-09-10T03:38:05.207Z,0.70
2018-09-10T03:40:33.577Z,0.90
2018-09-10T03:43:01.938Z,1.10
2018-09-10T03:45:30.279Z,0.90
2018-09-10T03:47:58.678Z,0.83
2018-09-10T03:50:27.097Z,1.03
2018-09-10T03:52:55.467Z,1.00
2018-09-10T03:55:23.949Z,0.80
2018-09-10T03:57:52.392Z,1.20
2018-09-10T04:00:20.755Z,0.90
2018-09-10T04:02:49.066Z,0.60
2018-09-10T04:05:18.087Z,0.60
2018-09-10T04:07:46.444Z,1.03
2018-09-10T04:10:15.534Z,1.00
2018-09-10T04:12:43.892Z,1.00
2018-09-10T04:15:12.234Z,0.83
2018-09-10T04:17:40.641Z,1.03
2018-09-10T04:20:10.066Z,0.87
2018-09-10T04:22:39.690Z,0.90
2018-09-10T04:25:08.132Z,0.70
2018-09-10T04:27:37.350Z,1.47
2018-09-10T04:30:11.574Z,1.00
2018-09-10T04:32:39.898Z,0.70
2018-09-10T04:35:08.418Z,0.70
2018-09-10T04:37:36.997Z,0.73
2018-09-10T04:40:05.486Z,1.17
2018-09-10T04:42:34.387Z,1.50
2018-09-10T04:45:02.959Z,0.93
2018-09-10T04:47:31.325Z,0.90
2018-09-10T04:49:59.640Z,0.80
2018-09-10T04:52:27.968Z,1.23
2018-09-10T04:54:56.426Z,0.93
2018-09-10T04:57:24.863Z,0.87
2018-09-10T04:59:53.230Z,0.50
2018-09-10T05:02:21.598Z,1.07
2018-09-10T05:04:50.067Z,1.30
2018-09-10T05:07:18.378Z,1.73
2018-09-10T05:09:46.784Z,1.47
2018-09-10T05:12:15.118Z,0.90
2018-09-10T05:14:43.486Z,0.90
2018-09-10T05:17:11.934Z,1.20
2018-09-10T05:19:40.272Z,1.03
2018-09-10T05:22:08.653Z,1.10
2018-09-10T05:24:36.910Z,1.23
2018-09-10T05:27:06.654Z,1.50
2018-09-10T05:29:35.153Z,0.90
2018-09-10T05:32:03.800Z,1.30
2018-09-10T05:34:32.128Z,1.03
2018-09-10T05:37:00.624Z,0.80
2018-09-10T05:39:29.075Z,1.43
2018-09-10T05:41:57.416Z,1.20
2018-09-10T05:44:25.779Z,1.43
2018-09-10T05:46:54.148Z,0.90
2018-09-10T05:49:22.518Z,1.27
2018-09-10T05:51:50.869Z,1.60
2018-09-10T05:54:19.208Z,1.30
2018-09-10T05:56:47.545Z,1.30
2018-09-10T05:59:15.889Z,1.20
2018-09-10T06:01:44.246Z,1.43
2018-09-10T06:04:12.572Z,1.23
2018-09-10T06:06:40.948Z,1.27
2018-09-10T06:09:09.410Z,1.10
2018-09-10T06:11:38.165Z,1.90
2018-09-10T06:14:06.496Z,1.90
2018-09-10T06:16:34.816Z,1.50
2018-09-10T06:19:03.256Z,0.97
2018-09-10T06:21:32.290Z,1.33
2018-09-10T06:24:01.581Z,1.70
2018-09-10T06:26:29.984Z,2.10
2018-09-10T06:28:58.370Z,2.03
2018-09-10T06:31:27.569Z,1.50
2018-09-10T06:33:56.416Z,2.10
2018-09-10T06:36:25.536Z,1.70
2018-09-10T06:38:53.965Z,2.00
2018-09-10T06:41:22.310Z,1.20
2018-09-10T06:43:50.688Z,1.17
2018-09-10T06:46:19.048Z,1.53
2018-09-10T06:48:47.408Z,1.97
2018-09-10T06:51:15.778Z,1.53
2018-09-10T06:53:44.133Z,1.60
2018-09-10T06:56:12.504Z,2.37
2018-09-10T06:58:40.837Z,1.73
2018-09-10T07:01:09.166Z,1.77
2018-09-10T07:03:37.560Z,2.53
2018-09-10T07:06:05.944Z,1.47
2018-09-10T07:08:34.410Z,1.87
2018-09-10T07:11:02.720Z,1.20
2018-09-10T07:13:31.056Z,1.37
2018-09-10T07:15:59.437Z,1.60
2018-09-10T07:18:27.794Z,2.10
2018-09-10T07:20:56.243Z,1.60
2018-09-10T07:23:24.642Z,1.60
2018-09-10T07:25:52.990Z,1.53
2018-09-10T07:28:21.414Z,1.53
2018-09-10T07:30:49.775Z,1.10
2018-09-10T07:33:18.226Z,1.60
2018-09-10T07:35:46.547Z,1.60
2018-09-10T07:38:15.387Z,1.80
2018-09-10T07:40:43.785Z,2.70
2018-09-10T07:43:12.155Z,2.03
2018-09-10T07:45:40.529Z,1.10
2018-09-10T07:48:08.919Z,1.53
2018-09-10T07:50:37.274Z,1.90
2018-09-10T07:53:05.811Z,1.87
2018-09-10T07:55:34.155Z,1.73
2018-09-10T07:58:02.584Z,1.50
2018-09-10T08:00:30.919Z,1.70
2018-09-10T08:02:59.290Z,1.80
2018-09-10T08:05:28.255Z,2.53
2018-09-10T08:07:56.549Z,2.10
2018-09-10T08:10:24.883Z,1.33
2018-09-10T08:12:53.252Z,1.30
2018-09-10T08:15:21.570Z,1.70
2018-09-10T08:17:49.954Z,1.03
2018-09-10T08:20:18.396Z,1.63
2018-09-10T08:22:46.707Z,1.20
2018-09-10T08:25:15.129Z,2.00
2018-09-10T08:27:44.028Z,1.73
2018-09-10T08:30:12.471Z,1.40
2018-09-10T08:32:41.719Z,1.60
2018-09-10T08:35:10.475Z,1.40
2018-09-10T08:37:38.844Z,1.53
2018-09-10T08:40:07.358Z,1.53
2018-09-10T08:42:35.722Z,1.47
2018-09-10T08:45:04.154Z,1.20
2018-09-10T08:47:32.615Z,1.20
2018-09-10T08:50:00.963Z,1.17
2018-09-10T08:52:29.339Z,1.53
2018-09-10T08:54:58.256Z,1.37
2018-09-10T08:57:26.301Z,1.37
2018-09-10T08:59:54.639Z,1.33
2018-09-10T09:02:23.019Z,1.43
2018-09-10T09:04:51.346Z,1.30
2018-09-10T09:07:19.683Z,0.93
2018-09-10T09:09:48.025Z,1.07
2018-09-10T09:12:16.459Z,1.40
2018-09-10T09:14:44.898Z,1.73
2018-09-10T09:17:13.236Z,1.43
2018-09-10T09:19:41.604Z,1.20
2018-09-10T09:22:09.957Z,1.40
2018-09-10T09:24:38.309Z,0.80
2018-09-10T09:27:06.726Z,1.27
2018-09-10T09:29:35.160Z,1.43
2018-09-10T09:32:03.513Z,0.90
2018-09-10T09:34:37.274Z,1.30
2018-09-10T09:37:11.010Z,1.00
2018-09-10T09:39:44.918Z,1.13
2018-09-10T09:42:18.610Z,1.60
2018-09-10T09:44:52.342Z,1.10
2018-09-10T09:47:20.691Z,1.43
2018-09-10T09:49:49.046Z,1.73
2018-09-10T09:52:17.444Z,1.60
2018-09-10T09:54:45.868Z,1.40
2018-09-10T09:57:14.248Z,1.43
2018-09-10T09:59:42.640Z,1.03
2018-09-10T10:02:16.208Z,1.30
2018-09-10T10:04:44.531Z,1.33
2018-09-10T10:07:13.070Z,1.00
2018-09-10T10:09:41.461Z,0.70
2018-09-10T10:12:09.877Z,0.73
2018-09-10T10:14:38.145Z,0.90
2018-09-10T10:17:06.574Z,1.07
2018-09-10T10:19:34.944Z,1.27
2018-09-10T10:22:03.344Z,1.30
2018-09-10T10:24:31.710Z,1.03
2018-09-10T10:27:00.100Z,0.93
2018-09-10T10:29:28.482Z,1.20
2018-09-10T10:31:56.816Z,1.00
2018-09-10T10:34:25.150Z,0.90
2018-09-10T10:36:53.656Z,1.00
2018-09-10T10:39:22.034Z,0.87
2018-09-10T10:41:50.393Z,1.00
2018-09-10T10:44:18.835Z,1.03
2018-09-10T10:46:47.196Z,1.17
2018-09-10T10:49:15.560Z,1.17
2018-09-10T10:51:43.928Z,0.77
2018-09-10T10:54:13.014Z,0.73
2018-09-10T10:56:41.359Z,1.00
2018-09-10T10:59:09.760Z,0.90
2018-09-10T11:01:38.150Z,0.83
2018-09-10T11:04:06.585Z,1.03
2018-09-10T11:06:34.908Z,1.47
2018-09-10T11:09:03.418Z,0.70
2018-09-10T11:11:31.730Z,0.97
2018-09-10T11:32:07.938Z,0.90
2018-09-10T11:34:37.125Z,0.93
2018-09-10T11:37:05.592Z,0.90
2018-09-10T11:39:34.009Z,1.00
2018-09-10T11:42:02.574Z,1.47
2018-09-10T11:44:31.014Z,0.70
2018-09-10T11:46:59.483Z,1.17
2018-09-10T11:49:27.932Z,1.20
2018-09-10T11:51:56.301Z,0.97
2018-09-10T11:54:24.754Z,0.90
2018-09-10T11:56:54.126Z,0.93
2018-09-10T11:59:22.562Z,0.90
2018-09-10T12:01:54.004Z,1.03
2018-09-10T12:04:22.398Z,1.10
2018-09-10T12:06:50.798Z,1.37
2018-09-10T12:09:19.163Z,1.07
2018-09-10T12:11:47.611Z,1.10
2018-09-10T12:14:16.113Z,1.10
2018-09-10T12:16:44.498Z,0.90
2018-09-10T12:19:14.105Z,1.03
2018-09-10T12:21:42.466Z,0.70
2018-09-10T12:24:10.856Z,1.57
2018-09-10T12:26:39.367Z,1.07
2018-09-10T12:29:07.715Z,1.20
2018-09-10T12:31:36.142Z,1.00
2018-09-10T12:34:04.491Z,0.80
2018-09-10T12:36:32.869Z,0.80
2018-09-10T12:39:01.250Z,0.97
2018-09-10T12:41:29.724Z,0.90
2018-09-10T12:43:58.130Z,1.10
2018-09-10T12:46:26.537Z,1.00
2018-09-10T12:48:54.966Z,1.00
2018-09-10T12:51:23.430Z,0.87
2018-09-10T12:53:51.821Z,1.30
2018-09-10T12:56:20.169Z,1.20
2018-09-10T12:58:48.547Z,1.10
2018-09-10T13:01:16.963Z,1.10
2018-09-10T13:03:45.327Z,1.20
2018-09-10T13:06:14.335Z,1.00
2018-09-10T13:08:42.813Z,0.90
2018-09-10T13:11:11.240Z,1.20
2018-09-10T13:13:39.656Z,0.77
2018-09-10T13:16:08.293Z,1.27
2018-09-10T13:18:36.742Z,0.80
2018-09-10T13:21:05.324Z,1.07
2018-09-10T13:23:33.721Z,1.40
2018-09-10T13:26:02.115Z,1.20
2018-09-10T13:28:30.453Z,1.17
2018-09-10T13:30:58.836Z,0.80
2018-09-10T13:33:27.218Z,1.27
2018-09-10T13:35:55.599Z,1.40
2018-09-10T13:38:23.965Z,1.10
2018-09-10T13:40:52.284Z,0.97
2018-09-10T13:43:20.658Z,1.03
2018-09-10T13:45:49.118Z,1.30
2018-09-10T13:48:18.167Z,1.37
2018-09-10T13:50:46.554Z,0.90
2018-09-10T13:53:14.951Z,1.10
2018-09-10T13:55:43.386Z,1.13
2018-09-10T13:58:11.743Z,1.23
2018-09-10T14:00:40.146Z,1.03
2018-09-10T14:03:08.488Z,1.37
2018-09-10T14:05:36.951Z,1.27
2018-09-10T14:08:05.261Z,1.77
2018-09-10T14:10:33.779Z,1.20
2018-09-10T14:13:02.084Z,1.37
2018-09-10T14:15:30.999Z,1.77
2018-09-10T14:17:59.368Z,1.50
2018-09-10T14:20:27.764Z,1.50
2018-09-10T14:22:56.133Z,1.43
2018-09-10T14:25:24.543Z,1.40
2018-09-10T14:27:52.882Z,1.33
2018-09-10T14:30:21.263Z,1.20
2018-09-10T14:32:49.610Z,1.60
2018-09-10T14:35:18.025Z,1.87
2018-09-10T14:37:46.425Z,1.20
2018-09-10T14:40:14.781Z,1.83
2018-09-10T14:42:43.726Z,1.97
2018-09-10T14:45:12.045Z,1.87
2018-09-10T14:47:40.429Z,1.37
2018-09-10T14:50:08.775Z,1.33
2018-09-10T14:52:37.189Z,1.53
2018-09-10T14:55:05.549Z,1.20
2018-09-10T14:57:34.656Z,1.20
2018-09-10T15:00:03.033Z,1.50
2018-09-10T15:02:31.581Z,1.67
2018-09-10T15:04:59.978Z,1.20
2018-09-10T15:07:28.361Z,1.63
2018-09-10T15:09:56.702Z,1.70
2018-09-10T15:12:25.032Z,1.43
2018-09-10T15:14:53.352Z,1.80
2018-09-10T15:17:21.700Z,1.63
2018-09-10T15:19:50.032Z,1.63
2018-09-10T15:22:18.471Z,2.13
2018-09-10T15:24:46.806Z,1.63
2018-09-10T15:27:15.146Z,2.17
2018-09-10T15:29:43.627Z,1.70
2018-09-10T15:32:12.015Z,1.47
2018-09-10T15:34:40.375Z,1.70
2018-09-10T15:37:08.756Z,1.43
2018-09-10T15:39:37.103Z,1.90
2018-09-10T15:42:05.487Z,1.93
2018-09-10T15:44:33.823Z,1.70
2018-09-10T15:47:02.311Z,1.50
2018-09-10T15:49:30.808Z,1.63
2018-09-10T15:51:59.141Z,2.20
2018-09-10T15:54:27.485Z,1.87
2018-09-10T15:56:55.838Z,1.63
2018-09-10T15:59:24.544Z,1.90
2018-09-10T16:01:52.948Z,1.50
2018-09-10T16:04:21.320Z,2.00
2018-09-10T16:06:49.805Z,1.73
2018-09-10T16:09:18.129Z,1.77
2018-09-10T16:11:46.518Z,1.60
2018-09-10T16:14:14.981Z,1.60
2018-09-10T16:16:43.470Z,1.67
2018-09-10T16:19:12.019Z,1.50
2018-09-10T16:21:40.398Z,1.40
2018-09-10T16:24:08.855Z,1.60
2018-09-10T16:26:37.204Z,1.30
2018-09-10T16:29:05.579Z,1.47
2018-09-10T16:31:33.956Z,1.70
2018-09-10T16:34:02.354Z,1.63
2018-09-10T16:36:31.134Z,1.40
2018-09-10T16:38:59.480Z,1.60
2018-09-10T16:41:27.813Z,1.80
2018-09-10T16:43:56.177Z,1.53
2018-09-10T16:46:24.620Z,1.80
2018-09-10T16:48:52.966Z,1.60
2018-09-10T16:51:21.333Z,1.90
2018-09-10T16:53:49.736Z,1.50
2018-09-10T16:56:18.112Z,2.17
2018-09-10T16:58:46.528Z,1.50
2018-09-10T17:01:14.862Z,2.17
2018-09-10T17:03:43.229Z,1.83
2018-09-10T17:06:12.232Z,2.47
2018-09-10T17:08:41.008Z,1.83
2018-09-10T17:11:09.370Z,2.20
2018-09-10T17:13:37.742Z,1.70
2018-09-10T17:16:06.117Z,2.03
2018-09-10T17:18:34.490Z,1.93
2018-09-10T17:21:02.875Z,2.17
2018-09-10T17:23:31.314Z,1.70
2018-09-10T17:25:59.654Z,2.17
2018-09-10T17:28:29.866Z,1.90
2018-09-10T17:30:58.316Z,2.23
2018-09-10T17:33:26.735Z,2.20
2018-09-10T17:35:55.142Z,1.60
2018-09-10T17:38:23.482Z,1.70
2018-09-10T17:40:52.455Z,2.10
2018-09-10T17:43:20.825Z,2.03
2018-09-10T17:45:49.179Z,2.03
2018-09-10T17:48:18.025Z,1.87
2018-09-10T17:50:46.478Z,1.93
2018-09-10T17:53:14.775Z,2.13
2018-09-10T17:55:43.149Z,1.53
2018-09-10T17:58:12.167Z,2.53
2018-09-10T18:00:41.716Z,2.07
2018-09-10T18:03:11.601Z,2.03
2018-09-10T18:05:39.977Z,1.80
2018-09-10T18:08:08.401Z,1.97
2018-09-10T18:10:36.945Z,2.00
2018-09-10T18:13:05.984Z,2.10
2018-09-10T18:15:34.390Z,2.10
2018-09-10T18:18:03.521Z,1.97
2018-09-10T18:20:33.076Z,2.03
2018-09-10T18:23:01.372Z,1.80
2018-09-10T18:25:30.701Z,2.30
2018-09-10T18:27:59.109Z,2.17
2018-09-10T18:30:28.090Z,1.47
2018-09-10T18:32:56.483Z,1.13
2018-09-10T18:35:24.840Z,1.93
2018-09-10T18:37:53.187Z,1.60
2018-09-10T18:40:21.617Z,1.80
2018-09-10T18:42:49.907Z,1.97
2018-09-10T18:45:18.292Z,2.03
2018-09-10T18:47:46.647Z,1.63
2018-09-10T18:50:15.010Z,2.30
2018-09-10T18:52:44.413Z,2.80
2018-09-10T18:55:14.492Z,2.00
2018-09-10T18:57:42.872Z,1.70
2018-09-10T19:00:11.261Z,2.03
2018-09-10T19:02:39.629Z,1.87
2018-09-10T19:05:08.037Z,2.00
2018-09-10T19:07:36.526Z,2.33
2018-09-10T19:10:05.056Z,2.13
2018-09-10T19:12:33.442Z,1.70
2018-09-10T19:15:01.820Z,1.80
2018-09-10T19:17:30.195Z,2.00
2018-09-10T19:19:58.604Z,1.57
2018-09-10T19:22:26.988Z,1.53
2018-09-10T19:24:55.408Z,1.93
2018-09-10T19:27:23.784Z,1.97
2018-09-10T19:29:52.345Z,2.10
2018-09-10T19:32:20.692Z,2.10
2018-09-10T19:34:49.063Z,1.77
2018-09-10T19:37:17.522Z,2.13
2018-09-10T19:39:45.913Z,2.20
2018-09-10T19:42:14.265Z,2.07
2018-09-10T19:44:42.609Z,1.90
2018-09-10T19:47:10.964Z,1.80
2018-09-10T19:49:39.353Z,1.90
2018-09-10T19:52:07.777Z,2.60
2018-09-10T19:54:36.199Z,1.87
2018-09-10T19:57:04.596Z,1.97
2018-09-10T19:59:33.766Z,2.30
2018-09-10T20:02:02.657Z,1.53
2018-09-10T20:04:31.127Z,1.77
2018-09-10T20:06:59.644Z,1.93
2018-09-10T20:09:28.048Z,1.80
2018-09-10T20:11:57.302Z,2.13
2018-09-10T20:14:25.680Z,2.30
2018-09-10T20:16:54.741Z,1.80
2018-09-10T20:19:23.663Z,2.30
2018-09-10T20:21:52.561Z,2.07
2018-09-10T20:24:20.920Z,2.23
2018-09-10T20:26:49.318Z,2.10
2018-09-10T20:29:17.710Z,1.67
2018-09-10T20:31:46.060Z,2.10
2018-09-10T20:34:15.110Z,1.67
2018-09-10T20:36:43.463Z,2.00
2018-09-10T20:39:13.150Z,1.20
2018-09-10T20:41:41.675Z,1.57
2018-09-10T20:44:10.648Z,1.50
2018-09-10T20:46:39.541Z,1.53
2018-09-10T20:49:08.299Z,2.07
2018-09-10T20:51:36.684Z,1.50
2018-09-10T20:54:05.036Z,1.43
2018-09-10T20:56:33.358Z,1.37
2018-09-10T20:59:01.729Z,1.43
2018-09-10T21:01:30.071Z,1.33
2018-09-10T21:03:58.439Z,1.40
2018-09-10T21:06:26.908Z,1.57
2018-09-10T21:08:55.262Z,1.50
2018-09-10T21:11:24.120Z,1.40
2018-09-10T21:13:53.052Z,1.40
2018-09-10T21:16:21.382Z,1.10
2018-09-10T21:18:50.292Z,1.80
2018-09-10T21:21:18.766Z,1.40
2018-09-10T21:23:47.146Z,1.47
2018-09-10T21:26:15.492Z,1.40
2018-09-10T21:28:43.845Z,1.50
2018-09-10T21:31:12.325Z,1.17
2018-09-10T21:33:40.647Z,1.40
2018-09-10T21:36:09.006Z,1.07
2018-09-10T21:38:37.361Z,1.20
2018-09-10T21:41:05.714Z,1.13
2018-09-10T21:43:34.089Z,0.97
2018-09-10T21:46:02.640Z,1.43
2018-09-10T21:48:31.163Z,0.93
2018-09-10T21:50:59.596Z,1.60
2018-09-10T21:53:27.945Z,1.90
2018-09-10T21:55:56.336Z,1.57
2018-09-10T21:58:24.650Z,1.00
2018-09-10T22:00:54.562Z,1.50
2018-09-10T22:03:22.928Z,1.10
2018-09-10T22:05:51.467Z,2.30
2018-09-10T22:08:20.350Z,2.43
2018-09-10T22:10:48.736Z,2.50
2018-09-10T22:13:17.126Z,1.77
2018-09-10T22:15:45.518Z,2.03
2018-09-10T22:18:14.138Z,1.37
2018-09-10T22:20:42.930Z,1.67
2018-09-10T22:23:11.262Z,1.73
2018-09-10T22:25:39.733Z,1.60
2018-09-10T22:28:08.237Z,1.20
2018-09-10T22:30:37.188Z,1.90
2018-09-10T22:33:05.738Z,2.20
2018-09-10T22:35:34.174Z,1.97
2018-09-10T22:38:02.526Z,2.17
2018-09-10T22:40:30.896Z,1.57
2018-09-10T22:42:59.406Z,2.07
2018-09-10T22:45:27.771Z,2.23
2018-09-10T22:47:56.132Z,1.70
2018-09-10T22:50:24.468Z,1.60
2018-09-10T22:52:52.822Z,1.30
2018-09-10T22:55:21.234Z,1.30
2018-09-10T22:57:50.217Z,1.63
2018-09-10T23:00:18.556Z,2.30
2018-09-10T23:02:46.903Z,2.37
2018-09-10T23:05:15.246Z,2.33
2018-09-10T23:07:43.630Z,1.90
2018-09-10T23:10:12.006Z,1.80
2018-09-10T23:12:40.341Z,2.27
2018-09-10T23:15:08.716Z,2.40
2018-09-10T23:17:37.048Z,2.40
2018-09-10T23:20:06.230Z,2.73
2018-09-10T23:22:34.580Z,2.10
2018-09-10T23:25:02.945Z,1.60
2018-09-10T23:27:31.297Z,1.50
2018-09-10T23:29:59.636Z,1.27
2018-09-10T23:32:27.961Z,1.60
2018-09-10T23:34:56.441Z,1.60
2018-09-10T23:37:24.865Z,2.37
2018-09-10T23:39:53.756Z,2.33
2018-09-10T23:42:22.067Z,1.13
2018-09-10T23:44:50.399Z,1.70
2018-09-10T23:47:18.756Z,1.57
2018-09-10T23:49:47.162Z,1.10
2018-09-10T23:52:15.501Z,1.80
2018-09-10T23:54:44.483Z,1.47
2018-09-10T23:57:12.849Z,2.00
2018-09-10T23:59:41.191Z,1.93
